sensor_id;sensor_type;location;lat;lon;timestamp;temperature;humidity
16392;DHT22;8305;-33.882;151.134;2023-05-17T00:01:49;15.60;99.90
16392;DHT22;8305;-33.882;151.134;2023-05-17T00:04:20;15.50;99.90
16392;DHT22;8305;-33.882;151.134;2023-05-17T00:06:51;15.50;99.90
16392;DHT22;8305;-33.882;151.134;2023-05-17T00:09:22;15.50;99.90
16392;DHT22;8305;-33.882;151.134;2023-05-17T00:11:53;15.50;99.90
16392;DHT22;8305;-33.882;151.134;2023-05-17T00:14:27;15.50;99.90
16392;DHT22;8305;-33.882;151.134;2023-05-17T00:16:58;15.50;99.90
16392;DHT22;8305;-33.882;151.134;2023-05-17T00:19:29;15.60;99.90
16392;DHT22;8305;-33.882;151.134;2023-05-17T00:22:00;15.60;99.90
16392;DHT22;8305;-33.882;151.134;2023-05-17T00:24:31;15.60;99.90
16392;DHT22;8305;-33.882;151.134;2023-05-17T00:27:02;15.70;99.90
16392;DHT22;8305;-33.882;151.134;2023-05-17T00:29:36;15.80;99.90
16392;DHT22;8305;-33.882;151.134;2023-05-17T00:32:07;15.90;99.90
16392;DHT22;8305;-33.882;151.134;2023-05-17T00:34:38;15.90;99.90
16392;DHT22;8305;-33.882;151.134;2023-05-17T00:37:09;16.00;99.90
16392;DHT22;8305;-33.882;151.134;2023-05-17T00:39:40;16.10;99.90
16392;DHT22;8305;-33.882;151.134;2023-05-17T00:42:11;16.20;99.90
16392;DHT22;8305;-33.882;151.134;2023-05-17T00:44:44;16.20;99.90
16392;DHT22;8305;-33.882;151.134;2023-05-17T00:47:15;16.10;99.90
16392;DHT22;8305;-33.882;151.134;2023-05-17T00:49:46;16.00;99.90
16392;DHT22;8305;-33.882;151.134;2023-05-17T00:52:18;16.00;99.90
16392;DHT22;8305;-33.882;151.134;2023-05-17T00:54:51;16.00;99.90
16392;DHT22;8305;-33.882;151.134;2023-05-17T00:57:25;16.00;99.90
16392;DHT22;8305;-33.882;151.134;2023-05-17T01:00:00;16.10;99.90
16392;DHT22;8305;-33.882;151.134;2023-05-17T01:02:32;16.10;99.90
16392;DHT22;8305;-33.882;151.134;2023-05-17T01:05:04;16.10;99.90
16392;DHT22;8305;-33.882;151.134;2023-05-17T01:07:35;16.20;99.90
16392;DHT22;8305;-33.882;151.134;2023-05-17T01:10:09;16.20;99.90
16392;DHT22;8305;-33.882;151.134;2023-05-17T01:12:49;16.30;99.90
16392;DHT22;8305;-33.882;151.134;2023-05-17T01:15:29;16.30;99.90
16392;DHT22;8305;-33.882;151.134;2023-05-17T01:18:08;16.30;99.90
16392;DHT22;8305;-33.882;151.134;2023-05-17T01:20:43;16.40;99.90
16392;DHT22;8305;-33.882;151.134;2023-05-17T01:23:29;16.50;99.90
16392;DHT22;8305;-33.882;151.134;2023-05-17T01:26:06;16.60;99.90
16392;DHT22;8305;-33.882;151.134;2023-05-17T01:28:45;16.60;99.90
16392;DHT22;8305;-33.882;151.134;2023-05-17T01:31:16;16.60;99.90
16392;DHT22;8305;-33.882;151.134;2023-05-17T01:33:48;16.70;99.90
16392;DHT22;8305;-33.882;151.134;2023-05-17T01:36:19;16.80;99.90
16392;DHT22;8305;-33.882;151.134;2023-05-17T01:38:50;16.90;99.90
16392;DHT22;8305;-33.882;151.134;2023-05-17T01:41:28;17.00;99.90
16392;DHT22;8305;-33.882;151.134;2023-05-17T01:44:06;17.10;99.90
16392;DHT22;8305;-33.882;151.134;2023-05-17T01:46:42;17.10;99.90
16392;DHT22;8305;-33.882;151.134;2023-05-17T01:49:19;17.20;99.90
16392;DHT22;8305;-33.882;151.134;2023-05-17T01:51:56;17.30;99.90
16392;DHT22;8305;-33.882;151.134;2023-05-17T01:54:34;17.30;99.90
16392;DHT22;8305;-33.882;151.134;2023-05-17T01:57:07;17.40;99.90
16392;DHT22;8305;-33.882;151.134;2023-05-17T01:59:42;17.40;99.90
16392;DHT22;8305;-33.882;151.134;2023-05-17T02:02:14;17.50;99.90
16392;DHT22;8305;-33.882;151.134;2023-05-17T02:04:45;17.50;99.90
16392;DHT22;8305;-33.882;151.134;2023-05-17T02:07:18;17.60;99.90
16392;DHT22;8305;-33.882;151.134;2023-05-17T02:09:49;17.60;99.90
16392;DHT22;8305;-33.882;151.134;2023-05-17T02:12:20;17.60;99.90
16392;DHT22;8305;-33.882;151.134;2023-05-17T02:14:54;17.70;99.90
16392;DHT22;8305;-33.882;151.134;2023-05-17T02:17:25;17.70;99.90
16392;DHT22;8305;-33.882;151.134;2023-05-17T02:19:56;17.70;99.90
16392;DHT22;8305;-33.882;151.134;2023-05-17T02:22:27;17.70;99.90
16392;DHT22;8305;-33.882;151.134;2023-05-17T02:24:58;17.70;99.90
16392;DHT22;8305;-33.882;151.134;2023-05-17T02:27:29;17.70;99.90
16392;DHT22;8305;-33.882;151.134;2023-05-17T02:30:03;17.80;99.90
16392;DHT22;8305;-33.882;151.134;2023-05-17T02:32:36;17.90;99.90
16392;DHT22;8305;-33.882;151.134;2023-05-17T02:35:07;17.90;99.90
16392;DHT22;8305;-33.882;151.134;2023-05-17T02:37:39;17.80;99.90
16392;DHT22;8305;-33.882;151.134;2023-05-17T02:40:10;17.70;99.90
16392;DHT22;8305;-33.882;151.134;2023-05-17T02:42:42;17.70;99.90
16392;DHT22;8305;-33.882;151.134;2023-05-17T02:45:15;17.70;99.90
16392;DHT22;8305;-33.882;151.134;2023-05-17T02:47:46;17.70;99.90
16392;DHT22;8305;-33.882;151.134;2023-05-17T02:50:17;17.60;99.90
16392;DHT22;8305;-33.882;151.134;2023-05-17T02:52:48;17.60;99.90
16392;DHT22;8305;-33.882;151.134;2023-05-17T02:55:19;17.60;99.90
16392;DHT22;8305;-33.882;151.134;2023-05-17T02:57:50;17.50;99.90
16392;DHT22;8305;-33.882;151.134;2023-05-17T03:00:23;17.40;99.90
16392;DHT22;8305;-33.882;151.134;2023-05-17T03:02:55;17.40;99.90
16392;DHT22;8305;-33.882;151.134;2023-05-17T03:05:26;17.40;99.90
16392;DHT22;8305;-33.882;151.134;2023-05-17T03:07:57;17.40;99.90
16392;DHT22;8305;-33.882;151.134;2023-05-17T03:10:28;17.60;99.90
16392;DHT22;8305;-33.882;151.134;2023-05-17T03:12:59;17.60;99.90
16392;DHT22;8305;-33.882;151.134;2023-05-17T03:15:32;17.60;99.90
16392;DHT22;8305;-33.882;151.134;2023-05-17T03:18:04;17.60;99.90
16392;DHT22;8305;-33.882;151.134;2023-05-17T03:20:35;17.60;99.90
16392;DHT22;8305;-33.882;151.134;2023-05-17T03:23:06;17.60;99.90
16392;DHT22;8305;-33.882;151.134;2023-05-17T03:25:37;17.60;99.90
16392;DHT22;8305;-33.882;151.134;2023-05-17T03:28:08;17.50;99.90
16392;DHT22;8305;-33.882;151.134;2023-05-17T03:30:41;17.20;99.90
16392;DHT22;8305;-33.882;151.134;2023-05-17T03:33:12;17.00;99.90
16392;DHT22;8305;-33.882;151.134;2023-05-17T03:35:43;16.90;99.90
16392;DHT22;8305;-33.882;151.134;2023-05-17T03:38:14;16.90;99.90
16392;DHT22;8305;-33.882;151.134;2023-05-17T03:40:46;17.00;99.90
16392;DHT22;8305;-33.882;151.134;2023-05-17T03:43:17;17.10;99.90
16392;DHT22;8305;-33.882;151.134;2023-05-17T03:45:50;17.20;99.90
16392;DHT22;8305;-33.882;151.134;2023-05-17T03:48:21;17.30;99.90
16392;DHT22;8305;-33.882;151.134;2023-05-17T03:50:52;17.30;99.90
16392;DHT22;8305;-33.882;151.134;2023-05-17T03:53:23;17.30;99.90
16392;DHT22;8305;-33.882;151.134;2023-05-17T03:55:54;17.20;99.90
16392;DHT22;8305;-33.882;151.134;2023-05-17T03:58:25;17.30;99.90
16392;DHT22;8305;-33.882;151.134;2023-05-17T04:00:58;17.30;99.90
16392;DHT22;8305;-33.882;151.134;2023-05-17T04:03:29;17.30;99.90
16392;DHT22;8305;-33.882;151.134;2023-05-17T04:06:05;17.40;99.90
16392;DHT22;8305;-33.882;151.134;2023-05-17T04:08:36;17.30;99.90
16392;DHT22;8305;-33.882;151.134;2023-05-17T04:11:07;17.20;99.90
16392;DHT22;8305;-33.882;151.134;2023-05-17T04:13:42;17.20;99.90
16392;DHT22;8305;-33.882;151.134;2023-05-17T04:16:15;17.10;99.90
16392;DHT22;8305;-33.882;151.134;2023-05-17T04:18:46;17.00;99.90
16392;DHT22;8305;-33.882;151.134;2023-05-17T04:21:19;16.90;99.90
16392;DHT22;8305;-33.882;151.134;2023-05-17T04:23:50;16.90;99.90
16392;DHT22;8305;-33.882;151.134;2023-05-17T04:26:21;17.00;99.90
16392;DHT22;8305;-33.882;151.134;2023-05-17T04:28:53;16.90;99.90
16392;DHT22;8305;-33.882;151.134;2023-05-17T04:31:26;16.90;99.90
16392;DHT22;8305;-33.882;151.134;2023-05-17T04:33:57;16.90;99.90
16392;DHT22;8305;-33.882;151.134;2023-05-17T04:36:29;16.90;99.90
16392;DHT22;8305;-33.882;151.134;2023-05-17T04:39:00;16.90;99.90
16392;DHT22;8305;-33.882;151.134;2023-05-17T04:41:32;16.90;99.90
16392;DHT22;8305;-33.882;151.134;2023-05-17T04:44:04;17.00;99.90
16392;DHT22;8305;-33.882;151.134;2023-05-17T04:46:38;17.10;99.90
16392;DHT22;8305;-33.882;151.134;2023-05-17T04:49:09;17.10;99.90
16392;DHT22;8305;-33.882;151.134;2023-05-17T04:51:40;17.10;99.90
16392;DHT22;8305;-33.882;151.134;2023-05-17T04:54:11;17.10;99.90
16392;DHT22;8305;-33.882;151.134;2023-05-17T04:56:42;17.00;99.90
16392;DHT22;8305;-33.882;151.134;2023-05-17T04:59:13;17.00;99.90
16392;DHT22;8305;-33.882;151.134;2023-05-17T05:01:46;17.00;99.90
16392;DHT22;8305;-33.882;151.134;2023-05-17T05:04:17;17.00;99.90
16392;DHT22;8305;-33.882;151.134;2023-05-17T05:06:48;16.90;99.90
16392;DHT22;8305;-33.882;151.134;2023-05-17T05:09:19;16.90;99.90
16392;DHT22;8305;-33.882;151.134;2023-05-17T05:11:50;16.80;99.90
16392;DHT22;8305;-33.882;151.134;2023-05-17T05:14:21;16.70;99.90
16392;DHT22;8305;-33.882;151.134;2023-05-17T05:16:54;16.60;99.90
16392;DHT22;8305;-33.882;151.134;2023-05-17T05:19:26;16.50;99.90
16392;DHT22;8305;-33.882;151.134;2023-05-17T05:21:57;16.60;99.90
16392;DHT22;8305;-33.882;151.134;2023-05-17T05:24:28;16.70;99.90
16392;DHT22;8305;-33.882;151.134;2023-05-17T05:26:59;16.70;99.90
16392;DHT22;8305;-33.882;151.134;2023-05-17T05:29:30;16.60;99.90
16392;DHT22;8305;-33.882;151.134;2023-05-17T05:32:03;16.50;99.90
16392;DHT22;8305;-33.882;151.134;2023-05-17T05:34:34;16.40;99.90
16392;DHT22;8305;-33.882;151.134;2023-05-17T05:37:06;16.50;99.90
16392;DHT22;8305;-33.882;151.134;2023-05-17T05:39:37;16.60;99.90
16392;DHT22;8305;-33.882;151.134;2023-05-17T05:42:08;16.70;99.90
16392;DHT22;8305;-33.882;151.134;2023-05-17T05:44:39;16.60;99.90
16392;DHT22;8305;-33.882;151.134;2023-05-17T05:47:12;16.60;99.90
16392;DHT22;8305;-33.882;151.134;2023-05-17T05:49:44;16.50;99.90
16392;DHT22;8305;-33.882;151.134;2023-05-17T05:52:15;16.40;99.90
16392;DHT22;8305;-33.882;151.134;2023-05-17T05:54:46;16.30;99.90
16392;DHT22;8305;-33.882;151.134;2023-05-17T05:57:17;16.30;99.90
16392;DHT22;8305;-33.882;151.134;2023-05-17T05:59:48;16.30;99.90
16392;DHT22;8305;-33.882;151.134;2023-05-17T06:02:21;16.30;99.90
16392;DHT22;8305;-33.882;151.134;2023-05-17T06:04:53;16.20;99.90
16392;DHT22;8305;-33.882;151.134;2023-05-17T06:07:24;16.20;99.90
16392;DHT22;8305;-33.882;151.134;2023-05-17T06:09:55;16.20;99.90
16392;DHT22;8305;-33.882;151.134;2023-05-17T06:12:26;16.30;99.90
16392;DHT22;8305;-33.882;151.134;2023-05-17T06:14:57;16.30;99.90
16392;DHT22;8305;-33.882;151.134;2023-05-17T06:17:30;16.30;99.90
16392;DHT22;8305;-33.882;151.134;2023-05-17T06:20:02;16.20;99.90
16392;DHT22;8305;-33.882;151.134;2023-05-17T06:22:33;16.20;99.90
16392;DHT22;8305;-33.882;151.134;2023-05-17T06:25:04;16.10;99.90
16392;DHT22;8305;-33.882;151.134;2023-05-17T06:27:35;16.10;99.90
16392;DHT22;8305;-33.882;151.134;2023-05-17T06:30:07;16.00;99.90
16392;DHT22;8305;-33.882;151.134;2023-05-17T06:32:40;15.90;99.90
16392;DHT22;8305;-33.882;151.134;2023-05-17T06:35:12;15.70;99.90
16392;DHT22;8305;-33.882;151.134;2023-05-17T06:37:43;15.60;99.90
16392;DHT22;8305;-33.882;151.134;2023-05-17T06:40:14;15.50;99.90
16392;DHT22;8305;-33.882;151.134;2023-05-17T06:42:45;15.30;99.90
16392;DHT22;8305;-33.882;151.134;2023-05-17T06:45:16;15.30;99.90
16392;DHT22;8305;-33.882;151.134;2023-05-17T06:47:49;15.20;99.90
16392;DHT22;8305;-33.882;151.134;2023-05-17T06:50:20;15.10;99.90
16392;DHT22;8305;-33.882;151.134;2023-05-17T06:52:53;15.10;99.90
16392;DHT22;8305;-33.882;151.134;2023-05-17T06:55:24;15.00;99.90
16392;DHT22;8305;-33.882;151.134;2023-05-17T06:57:56;15.00;99.90
16392;DHT22;8305;-33.882;151.134;2023-05-17T07:00:27;15.00;99.90
16392;DHT22;8305;-33.882;151.134;2023-05-17T07:03:00;14.90;99.90
16392;DHT22;8305;-33.882;151.134;2023-05-17T07:05:31;14.90;99.90
16392;DHT22;8305;-33.882;151.134;2023-05-17T07:08:03;14.90;99.90
16392;DHT22;8305;-33.882;151.134;2023-05-17T07:10:34;14.90;99.90
16392;DHT22;8305;-33.882;151.134;2023-05-17T07:13:05;14.90;99.90
16392;DHT22;8305;-33.882;151.134;2023-05-17T07:15:36;14.90;99.90
16392;DHT22;8305;-33.882;151.134;2023-05-17T07:18:09;14.90;99.90
16392;DHT22;8305;-33.882;151.134;2023-05-17T07:20:41;14.80;99.90
16392;DHT22;8305;-33.882;151.134;2023-05-17T07:23:12;14.80;99.90
16392;DHT22;8305;-33.882;151.134;2023-05-17T07:25:43;14.80;99.90
16392;DHT22;8305;-33.882;151.134;2023-05-17T07:28:14;14.80;99.90
16392;DHT22;8305;-33.882;151.134;2023-05-17T07:30:45;14.80;99.90
16392;DHT22;8305;-33.882;151.134;2023-05-17T07:33:18;14.80;99.90
16392;DHT22;8305;-33.882;151.134;2023-05-17T07:35:49;14.70;99.90
16392;DHT22;8305;-33.882;151.134;2023-05-17T07:38:20;14.70;99.90
16392;DHT22;8305;-33.882;151.134;2023-05-17T07:40:51;14.70;99.90
16392;DHT22;8305;-33.882;151.134;2023-05-17T07:43:22;14.70;99.90
16392;DHT22;8305;-33.882;151.134;2023-05-17T07:45:53;14.70;99.90
16392;DHT22;8305;-33.882;151.134;2023-05-17T07:48:26;14.60;99.90
16392;DHT22;8305;-33.882;151.134;2023-05-17T07:50:58;14.60;99.90
16392;DHT22;8305;-33.882;151.134;2023-05-17T07:53:29;14.60;99.90
16392;DHT22;8305;-33.882;151.134;2023-05-17T07:56:00;14.60;99.90
16392;DHT22;8305;-33.882;151.134;2023-05-17T07:58:31;14.60;99.90
16392;DHT22;8305;-33.882;151.134;2023-05-17T08:01:03;14.60;99.90
16392;DHT22;8305;-33.882;151.134;2023-05-17T08:03:36;14.60;99.90
16392;DHT22;8305;-33.882;151.134;2023-05-17T08:06:14;14.60;99.90
16392;DHT22;8305;-33.882;151.134;2023-05-17T08:08:45;14.60;99.90
16392;DHT22;8305;-33.882;151.134;2023-05-17T08:11:17;14.60;99.90
16392;DHT22;8305;-33.882;151.134;2023-05-17T08:13:48;14.60;99.90
16392;DHT22;8305;-33.882;151.134;2023-05-17T08:16:19;14.60;99.90
16392;DHT22;8305;-33.882;151.134;2023-05-17T08:18:52;14.60;99.90
16392;DHT22;8305;-33.882;151.134;2023-05-17T08:21:23;14.60;99.90
16392;DHT22;8305;-33.882;151.134;2023-05-17T08:23:54;14.60;99.90
16392;DHT22;8305;-33.882;151.134;2023-05-17T08:26:25;14.50;99.90
16392;DHT22;8305;-33.882;151.134;2023-05-17T08:28:56;14.50;99.90
16392;DHT22;8305;-33.882;151.134;2023-05-17T08:31:28;14.50;99.90
16392;DHT22;8305;-33.882;151.134;2023-05-17T08:34:01;14.50;99.90
16392;DHT22;8305;-33.882;151.134;2023-05-17T08:36:32;14.50;99.90
16392;DHT22;8305;-33.882;151.134;2023-05-17T08:39:03;14.50;99.90
16392;DHT22;8305;-33.882;151.134;2023-05-17T08:41:35;14.40;99.90
16392;DHT22;8305;-33.882;151.134;2023-05-17T08:44:06;14.40;99.90
16392;DHT22;8305;-33.882;151.134;2023-05-17T08:46:38;14.40;99.90
16392;DHT22;8305;-33.882;151.134;2023-05-17T08:49:12;14.30;99.90
16392;DHT22;8305;-33.882;151.134;2023-05-17T08:51:45;14.30;99.90
16392;DHT22;8305;-33.882;151.134;2023-05-17T08:54:17;14.30;99.90
16392;DHT22;8305;-33.882;151.134;2023-05-17T08:56:51;14.20;99.90
16392;DHT22;8305;-33.882;151.134;2023-05-17T08:59:25;14.20;99.90
16392;DHT22;8305;-33.882;151.134;2023-05-17T09:02:00;14.20;99.90
16392;DHT22;8305;-33.882;151.134;2023-05-17T09:04:34;14.20;99.90
16392;DHT22;8305;-33.882;151.134;2023-05-17T09:07:05;14.10;99.90
16392;DHT22;8305;-33.882;151.134;2023-05-17T09:09:36;14.10;99.90
16392;DHT22;8305;-33.882;151.134;2023-05-17T09:12:08;14.10;99.90
16392;DHT22;8305;-33.882;151.134;2023-05-17T09:14:39;14.10;99.90
16392;DHT22;8305;-33.882;151.134;2023-05-17T09:17:14;14.10;99.90
16392;DHT22;8305;-33.882;151.134;2023-05-17T09:19:48;14.00;99.90
16392;DHT22;8305;-33.882;151.134;2023-05-17T09:22:19;14.00;99.90
16392;DHT22;8305;-33.882;151.134;2023-05-17T09:24:51;14.00;99.90
16392;DHT22;8305;-33.882;151.134;2023-05-17T09:27:22;14.00;99.90
16392;DHT22;8305;-33.882;151.134;2023-05-17T09:29:54;14.00;99.90
16392;DHT22;8305;-33.882;151.134;2023-05-17T09:32:25;14.00;99.90
16392;DHT22;8305;-33.882;151.134;2023-05-17T09:34:59;14.00;99.90
16392;DHT22;8305;-33.882;151.134;2023-05-17T09:37:31;14.00;99.90
16392;DHT22;8305;-33.882;151.134;2023-05-17T09:40:02;14.00;99.90
16392;DHT22;8305;-33.882;151.134;2023-05-17T09:42:34;14.00;99.90
16392;DHT22;8305;-33.882;151.134;2023-05-17T09:45:06;14.00;99.90
16392;DHT22;8305;-33.882;151.134;2023-05-17T09:47:37;14.00;99.90
16392;DHT22;8305;-33.882;151.134;2023-05-17T09:50:17;14.00;99.90
16392;DHT22;8305;-33.882;151.134;2023-05-17T09:52:48;14.00;99.90
16392;DHT22;8305;-33.882;151.134;2023-05-17T09:55:24;14.10;99.90
16392;DHT22;8305;-33.882;151.134;2023-05-17T09:58:02;14.10;99.90
16392;DHT22;8305;-33.882;151.134;2023-05-17T10:00:34;14.00;99.90
16392;DHT22;8305;-33.882;151.134;2023-05-17T10:03:06;14.00;99.90
16392;DHT22;8305;-33.882;151.134;2023-05-17T10:05:40;14.00;99.90
16392;DHT22;8305;-33.882;151.134;2023-05-17T10:08:14;14.10;99.90
16392;DHT22;8305;-33.882;151.134;2023-05-17T10:10:48;14.00;99.90
16392;DHT22;8305;-33.882;151.134;2023-05-17T10:13:21;14.10;99.90
16392;DHT22;8305;-33.882;151.134;2023-05-17T10:15:54;14.10;99.90
16392;DHT22;8305;-33.882;151.134;2023-05-17T10:18:25;14.00;99.90
16392;DHT22;8305;-33.882;151.134;2023-05-17T10:20:59;14.00;99.90
16392;DHT22;8305;-33.882;151.134;2023-05-17T10:23:31;14.00;99.90
16392;DHT22;8305;-33.882;151.134;2023-05-17T10:26:03;14.10;99.90
16392;DHT22;8305;-33.882;151.134;2023-05-17T10:28:35;14.10;99.90
16392;DHT22;8305;-33.882;151.134;2023-05-17T10:31:06;14.00;99.90
16392;DHT22;8305;-33.882;151.134;2023-05-17T10:33:38;14.00;99.90
16392;DHT22;8305;-33.882;151.134;2023-05-17T10:36:13;13.90;99.90
16392;DHT22;8305;-33.882;151.134;2023-05-17T10:38:46;13.90;99.90
16392;DHT22;8305;-33.882;151.134;2023-05-17T10:41:18;13.90;99.90
16392;DHT22;8305;-33.882;151.134;2023-05-17T10:43:51;13.90;99.90
16392;DHT22;8305;-33.882;151.134;2023-05-17T10:46:23;13.80;99.90
16392;DHT22;8305;-33.882;151.134;2023-05-17T10:48:55;13.80;99.90
16392;DHT22;8305;-33.882;151.134;2023-05-17T10:51:31;13.80;99.90
16392;DHT22;8305;-33.882;151.134;2023-05-17T10:54:08;13.80;99.90
16392;DHT22;8305;-33.882;151.134;2023-05-17T10:56:47;13.80;99.90
16392;DHT22;8305;-33.882;151.134;2023-05-17T10:59:20;13.80;99.90
16392;DHT22;8305;-33.882;151.134;2023-05-17T11:01:57;13.80;99.90
16392;DHT22;8305;-33.882;151.134;2023-05-17T11:04:33;13.80;99.90
16392;DHT22;8305;-33.882;151.134;2023-05-17T11:07:26;13.80;99.90
16392;DHT22;8305;-33.882;151.134;2023-05-17T11:10:09;13.80;99.90
16392;DHT22;8305;-33.882;151.134;2023-05-17T11:12:41;13.80;99.90
16392;DHT22;8305;-33.882;151.134;2023-05-17T11:15:15;13.80;99.90
16392;DHT22;8305;-33.882;151.134;2023-05-17T11:17:51;13.80;99.90
16392;DHT22;8305;-33.882;151.134;2023-05-17T11:20:33;13.80;99.90
16392;DHT22;8305;-33.882;151.134;2023-05-17T11:23:15;13.80;99.90
16392;DHT22;8305;-33.882;151.134;2023-05-17T11:25:48;13.80;99.90
16392;DHT22;8305;-33.882;151.134;2023-05-17T11:28:21;13.70;99.90
16392;DHT22;8305;-33.882;151.134;2023-05-17T11:31:00;13.70;99.90
16392;DHT22;8305;-33.882;151.134;2023-05-17T11:33:40;13.70;99.90
16392;DHT22;8305;-33.882;151.134;2023-05-17T11:36:18;13.60;99.90
16392;DHT22;8305;-33.882;151.134;2023-05-17T11:39:09;13.60;99.90
16392;DHT22;8305;-33.882;151.134;2023-05-17T11:41:48;13.50;99.90
16392;DHT22;8305;-33.882;151.134;2023-05-17T11:44:23;13.40;99.90
16392;DHT22;8305;-33.882;151.134;2023-05-17T11:47:01;13.40;99.90
16392;DHT22;8305;-33.882;151.134;2023-05-17T11:49:35;13.30;99.90
16392;DHT22;8305;-33.882;151.134;2023-05-17T11:52:07;13.30;99.90
16392;DHT22;8305;-33.882;151.134;2023-05-17T11:54:40;13.20;99.90
16392;DHT22;8305;-33.882;151.134;2023-05-17T11:57:12;13.20;99.90
16392;DHT22;8305;-33.882;151.134;2023-05-17T11:59:45;13.10;99.90
16392;DHT22;8305;-33.882;151.134;2023-05-17T12:02:30;13.10;99.90
16392;DHT22;8305;-33.882;151.134;2023-05-17T12:05:01;13.00;99.90
16392;DHT22;8305;-33.882;151.134;2023-05-17T12:07:34;13.10;99.90
16392;DHT22;8305;-33.882;151.134;2023-05-17T12:10:13;13.00;99.90
16392;DHT22;8305;-33.882;151.134;2023-05-17T12:12:44;13.00;99.90
16392;DHT22;8305;-33.882;151.134;2023-05-17T12:15:19;13.10;99.90
16392;DHT22;8305;-33.882;151.134;2023-05-17T12:17:51;13.10;99.90
16392;DHT22;8305;-33.882;151.134;2023-05-17T12:20:23;13.10;99.90
16392;DHT22;8305;-33.882;151.134;2023-05-17T12:22:56;13.10;99.90
16392;DHT22;8305;-33.882;151.134;2023-05-17T12:25:29;13.10;99.90
16392;DHT22;8305;-33.882;151.134;2023-05-17T12:28:16;13.10;99.90
16392;DHT22;8305;-33.882;151.134;2023-05-17T12:30:53;13.10;99.90
16392;DHT22;8305;-33.882;151.134;2023-05-17T12:33:25;13.10;99.90
16392;DHT22;8305;-33.882;151.134;2023-05-17T12:35:56;13.00;99.90
16392;DHT22;8305;-33.882;151.134;2023-05-17T12:38:27;13.00;99.90
16392;DHT22;8305;-33.882;151.134;2023-05-17T12:41:06;12.90;99.90
16392;DHT22;8305;-33.882;151.134;2023-05-17T12:43:39;12.90;99.90
16392;DHT22;8305;-33.882;151.134;2023-05-17T12:46:12;12.90;99.90
16392;DHT22;8305;-33.882;151.134;2023-05-17T12:48:45;12.80;99.90
16392;DHT22;8305;-33.882;151.134;2023-05-17T12:51:16;12.80;99.90
16392;DHT22;8305;-33.882;151.134;2023-05-17T12:53:50;12.80;99.90
16392;DHT22;8305;-33.882;151.134;2023-05-17T12:56:25;12.70;99.90
16392;DHT22;8305;-33.882;151.134;2023-05-17T12:59:10;12.70;99.90
16392;DHT22;8305;-33.882;151.134;2023-05-17T13:01:43;12.70;99.90
16392;DHT22;8305;-33.882;151.134;2023-05-17T13:04:15;12.60;99.90
16392;DHT22;8305;-33.882;151.134;2023-05-17T13:06:47;12.60;99.90
16392;DHT22;8305;-33.882;151.134;2023-05-17T13:09:19;12.60;99.90
16392;DHT22;8305;-33.882;151.134;2023-05-17T13:11:57;12.60;99.90
16392;DHT22;8305;-33.882;151.134;2023-05-17T13:14:35;12.50;99.90
16392;DHT22;8305;-33.882;151.134;2023-05-17T13:17:07;12.50;99.90
16392;DHT22;8305;-33.882;151.134;2023-05-17T13:19:38;12.50;99.90
16392;DHT22;8305;-33.882;151.134;2023-05-17T13:22:09;12.40;99.90
16392;DHT22;8305;-33.882;151.134;2023-05-17T13:24:42;12.40;99.90
16392;DHT22;8305;-33.882;151.134;2023-05-17T13:27:16;12.40;99.90
16392;DHT22;8305;-33.882;151.134;2023-05-17T13:29:47;12.40;99.90
16392;DHT22;8305;-33.882;151.134;2023-05-17T13:32:18;12.40;99.90
16392;DHT22;8305;-33.882;151.134;2023-05-17T13:34:49;12.30;99.90
16392;DHT22;8305;-33.882;151.134;2023-05-17T13:37:20;12.40;99.90
16392;DHT22;8305;-33.882;151.134;2023-05-17T13:39:51;12.30;99.90
16392;DHT22;8305;-33.882;151.134;2023-05-17T13:42:25;12.30;99.90
16392;DHT22;8305;-33.882;151.134;2023-05-17T13:44:56;12.30;99.90
16392;DHT22;8305;-33.882;151.134;2023-05-17T13:47:28;12.30;99.90
16392;DHT22;8305;-33.882;151.134;2023-05-17T13:50:00;12.30;99.90
16392;DHT22;8305;-33.882;151.134;2023-05-17T13:52:31;12.30;99.90
16392;DHT22;8305;-33.882;151.134;2023-05-17T13:55:02;12.20;99.90
16392;DHT22;8305;-33.882;151.134;2023-05-17T13:57:35;12.20;99.90
16392;DHT22;8305;-33.882;151.134;2023-05-17T14:00:07;12.20;99.90
16392;DHT22;8305;-33.882;151.134;2023-05-17T14:02:39;12.10;99.90
16392;DHT22;8305;-33.882;151.134;2023-05-17T14:05:10;12.10;99.90
16392;DHT22;8305;-33.882;151.134;2023-05-17T14:07:42;12.10;99.90
16392;DHT22;8305;-33.882;151.134;2023-05-17T14:10:13;12.10;99.90
16392;DHT22;8305;-33.882;151.134;2023-05-17T14:12:46;12.00;99.90
16392;DHT22;8305;-33.882;151.134;2023-05-17T14:15:17;12.00;99.90
16392;DHT22;8305;-33.882;151.134;2023-05-17T14:17:49;12.00;99.90
16392;DHT22;8305;-33.882;151.134;2023-05-17T14:20:20;12.00;99.90
16392;DHT22;8305;-33.882;151.134;2023-05-17T14:22:51;12.00;99.90
16392;DHT22;8305;-33.882;151.134;2023-05-17T14:25:23;12.10;99.90
16392;DHT22;8305;-33.882;151.134;2023-05-17T14:27:56;12.10;99.90
16392;DHT22;8305;-33.882;151.134;2023-05-17T14:30:27;12.10;99.90
16392;DHT22;8305;-33.882;151.134;2023-05-17T14:32:58;12.10;99.90
16392;DHT22;8305;-33.882;151.134;2023-05-17T14:35:29;12.10;99.90
16392;DHT22;8305;-33.882;151.134;2023-05-17T14:38:00;12.20;99.90
16392;DHT22;8305;-33.882;151.134;2023-05-17T14:40:31;12.20;99.90
16392;DHT22;8305;-33.882;151.134;2023-05-17T14:43:04;12.20;99.90
16392;DHT22;8305;-33.882;151.134;2023-05-17T14:45:35;12.30;99.90
16392;DHT22;8305;-33.882;151.134;2023-05-17T14:48:07;12.20;99.90
16392;DHT22;8305;-33.882;151.134;2023-05-17T14:50:38;12.20;99.90
16392;DHT22;8305;-33.882;151.134;2023-05-17T14:53:09;12.10;99.90
16392;DHT22;8305;-33.882;151.134;2023-05-17T14:55:40;12.10;99.90
16392;DHT22;8305;-33.882;151.134;2023-05-17T14:58:13;12.00;99.90
16392;DHT22;8305;-33.882;151.134;2023-05-17T15:00:44;12.00;99.90
16392;DHT22;8305;-33.882;151.134;2023-05-17T15:03:18;11.90;99.90
16392;DHT22;8305;-33.882;151.134;2023-05-17T15:05:53;11.90;99.90
16392;DHT22;8305;-33.882;151.134;2023-05-17T15:08:25;11.90;99.90
16392;DHT22;8305;-33.882;151.134;2023-05-17T15:10:57;11.90;99.90
16392;DHT22;8305;-33.882;151.134;2023-05-17T15:13:30;11.90;99.90
16392;DHT22;8305;-33.882;151.134;2023-05-17T15:16:02;11.90;99.90
16392;DHT22;8305;-33.882;151.134;2023-05-17T15:18:33;11.90;99.90
16392;DHT22;8305;-33.882;151.134;2023-05-17T15:21:05;11.90;99.90
16392;DHT22;8305;-33.882;151.134;2023-05-17T15:23:36;11.90;99.90
16392;DHT22;8305;-33.882;151.134;2023-05-17T15:26:07;12.00;99.90
16392;DHT22;8305;-33.882;151.134;2023-05-17T15:28:40;12.00;99.90
16392;DHT22;8305;-33.882;151.134;2023-05-17T15:31:11;12.00;99.90
16392;DHT22;8305;-33.882;151.134;2023-05-17T15:33:42;12.00;99.90
16392;DHT22;8305;-33.882;151.134;2023-05-17T15:36:13;12.00;99.90